Time;durP1;ratioP1;P1;durP2;ratioP2;P2;SDS_P1;SDS_P2;PMS_P1;PMS_P2;Temp;Humidity;BMP_temperature;BMP_pressure;BME280_temperature;BME280_humidity;BME280_pressure;Samples;Min_cycle;Max_cycle;Signal;HPM_P1;HPM_P2
2022/10/29 00:01:15;;;;;;;20.98;6.38;;;16.60;99.90;;;16.58;91.03;101970.97;5053206;28;20098;-68
2022/10/29 00:03:46;;;;;;;20.40;6.25;;;16.30;99.90;;;16.81;91.70;102001.00;5053063;28;20045;-68
2022/10/29 00:06:14;;;;;;;25.63;6.60;;;16.30;99.90;;;16.87;91.74;101998.25;5053615;28;20124;-68
2022/10/29 00:08:43;;;;;;;23.20;7.35;;;16.40;99.90;;;16.94;91.74;101988.34;5052903;28;20405;-68
2022/10/29 00:11:14;;;;;;;22.90;7.32;;;16.50;99.90;;;17.09;91.47;101997.06;5053324;28;20049;-68
2022/10/29 00:13:43;;;;;;;22.38;7.28;;;16.60;99.90;;;17.09;91.39;101997.06;5052955;28;20037;-68
2022/10/29 00:16:16;;;;;;;23.13;7.43;;;16.70;99.90;;;17.13;91.71;102001.47;5052786;28;20041;-68
2022/10/29 00:18:44;;;;;;;25.58;7.88;;;16.70;99.90;;;17.14;91.90;101997.00;5052907;28;20127;-68
2022/10/29 00:21:16;;;;;;;25.23;8.50;;;16.70;99.90;;;17.15;91.95;101994.31;5068201;28;20041;-68
2022/10/29 00:23:44;;;;;;;23.65;7.88;;;16.70;99.90;;;17.04;91.98;101982.88;5052613;28;20120;-68
2022/10/29 00:26:13;;;;;;;26.20;7.72;;;16.70;99.90;;;17.00;92.57;101988.28;5051533;28;20037;-68
2022/10/29 00:28:42;;;;;;;25.10;7.55;;;16.60;99.90;;;16.98;93.08;101988.28;5052751;28;20091;-68
2022/10/29 00:31:17;;;;;;;31.60;8.18;;;16.50;99.90;;;16.96;93.21;101982.09;5052581;28;20041;-68
2022/10/29 00:33:46;;;;;;;25.90;7.30;;;16.50;99.90;;;16.96;93.47;101976.75;5052903;28;20094;-68
2022/10/29 00:36:17;;;;;;;25.60;8.43;;;16.60;99.90;;;17.00;93.58;101982.91;5052728;28;20041;-68
2022/10/29 00:38:45;;;;;;;27.38;8.00;;;16.60;99.90;;;17.02;93.71;101981.13;5052757;28;20095;-68
2022/10/29 00:41:17;;;;;;;28.90;8.57;;;16.60;99.90;;;16.89;93.78;101942.97;5052519;28;20037;-68
2022/10/29 00:43:49;;;;;;;26.60;8.35;;;16.60;99.90;;;17.06;93.88;101964.13;5068119;28;20049;-68
2022/10/29 00:46:26;;;;;;;26.95;9.60;;;16.60;99.90;;;17.14;93.46;101976.50;5052613;28;20045;-68
2022/10/29 00:48:56;;;;;;;27.05;8.65;;;16.70;99.90;;;17.13;93.23;101985.41;5052221;28;20526;-68
2022/10/29 00:51:27;;;;;;;25.75;8.63;;;16.70;99.90;;;16.54;93.16;101891.78;5051489;28;20071;-69
2022/10/29 00:54:01;;;;;;;29.50;9.60;;;16.60;99.90;;;16.94;93.29;101977.66;5051157;28;20092;-68
2022/10/29 00:56:34;;;;;;;32.45;8.10;;;16.50;99.90;;;16.75;93.78;101963.66;5052504;28;20059;-68
2022/10/29 00:59:03;;;;;;;29.90;8.75;;;16.40;99.90;;;16.72;94.09;101961.03;5052451;28;20049;-68
2022/10/29 01:01:32;;;;;;;28.90;8.13;;;16.30;99.90;;;16.68;93.96;101959.28;5052342;28;20045;-68
2022/10/29 01:04:01;;;;;;;32.30;9.23;;;16.20;99.90;;;16.66;94.05;101934.38;5052139;28;20041;-69
2022/10/29 01:06:31;;;;;;;23.02;8.02;;;16.30;99.90;;;16.61;93.59;101912.16;5052520;28;20045;-68
2022/10/29 01:08:59;;;;;;;24.10;8.45;;;16.30;99.90;;;16.73;93.78;101951.19;5052352;28;20123;-68
2022/10/29 01:11:43;;;;;;;24.80;9.23;;;16.30;99.90;;;16.70;93.90;101937.88;5052202;28;20068;-68
2022/10/29 01:14:23;;;;;;;20.00;8.23;;;16.20;99.90;;;16.63;94.23;101938.84;5052369;28;20052;-68
2022/10/29 01:17:00;;;;;;;23.55;7.97;;;16.20;99.90;;;16.67;94.34;101935.22;5052221;28;20044;-68
2022/10/29 01:20:01;;;;;;;20.73;8.23;;;16.20;99.90;;;16.62;94.19;101921.97;5052279;28;20128;-68
2022/10/29 01:22:35;;;;;;;;;;;16.20;99.90;;;16.55;94.36;101935.41;5051378;28;20056;-68
2022/10/29 01:25:50;;;;;;;23.95;8.13;;;16.20;99.90;;;16.46;94.82;101930.13;5052126;28;20022;-69
2022/10/29 01:28:33;;;;;;;21.05;8.38;;;16.00;99.90;;;16.54;94.76;101944.31;5050972;28;20525;-68
2022/10/29 01:31:18;;;;;;;22.83;8.40;;;16.10;99.90;;;16.55;94.53;101938.94;5052038;28;20041;-68
2022/10/29 01:33:55;;;;;;;20.58;9.10;;;16.10;99.90;;;16.65;94.32;101939.72;5052466;28;20127;-68
2022/10/29 01:36:33;;;;;;;26.85;8.45;;;16.20;99.90;;;16.71;93.73;101931.63;5055851;28;20059;-68
2022/10/29 01:39:09;;;;;;;19.52;9.05;;;16.30;99.90;;;16.80;93.17;101923.50;5055854;28;20055;-68
2022/10/29 01:41:49;;;;;;;26.50;9.48;;;16.40;99.90;;;16.80;92.86;101916.34;5055753;28;20478;-68
2022/10/29 01:44:30;;;;;;;26.05;10.30;;;16.40;99.90;;;16.88;92.65;101919.81;5056327;28;20099;-68
2022/10/29 01:47:01;;;;;;;;;;;16.50;99.90;;;16.74;92.50;101913.75;5056269;28;20042;-68
2022/10/29 01:49:33;;;;;;;;;;;16.50;99.90;;;16.51;92.81;101902.47;5054784;28;19921;-68
2022/10/29 01:52:03;;;;;;;21.90;9.35;;;16.30;99.90;;;16.54;93.43;101915.81;5055537;28;19924;-68
2022/10/29 01:54:32;;;;;;;21.98;9.27;;;16.10;99.90;;;16.46;93.72;101922.09;5054484;28;20052;-68
2022/10/29 01:57:00;;;;;;;23.95;9.93;;;16.00;99.90;;;16.38;94.04;101919.53;5055683;28;20075;-68
2022/10/29 01:59:31;;;;;;;23.85;10.68;;;16.00;99.90;;;16.38;93.95;101922.19;5055563;28;20045;-68
2022/10/29 02:02:30;;;;;;;18.98;9.18;;;16.00;99.90;;;16.26;94.15;101927.66;5070801;28;20049;-68
2022/10/29 02:05:12;;;;;;;24.77;10.75;;;15.90;99.90;;;16.29;94.60;101924.97;5055439;28;20398;-68
2022/10/29 02:07:49;;;;;;;28.00;11.27;;;15.90;99.90;;;16.34;94.61;101922.28;5055472;28;20465;-68
2022/10/29 02:10:27;;;;;;;20.40;9.57;;;16.00;99.90;;;16.29;94.39;101927.66;5055153;28;20051;-69
2022/10/29 02:12:57;;;;;;;22.05;9.52;;;15.90;99.90;;;16.28;94.30;101920.53;5054697;28;20105;-68
2022/10/29 02:15:31;;;;;;;21.83;9.93;;;15.90;99.90;;;16.24;94.35;101910.78;5054823;28;20107;-68
2022/10/29 02:18:04;;;;;;;19.40;9.27;;;15.90;99.90;;;16.25;94.32;101899.22;5055143;28;20045;-68
2022/10/29 02:20:33;;;;;;;19.92;8.88;;;15.90;99.90;;;16.30;94.39;101901.84;5070594;28;20053;-68
2022/10/29 02:23:01;;;;;;;21.73;9.15;;;15.90;99.90;;;16.27;94.19;101897.41;5054961;28;20059;-68
2022/10/29 02:25:29;;;;;;;21.98;9.57;;;15.90;99.90;;;15.98;94.72;101880.81;5055133;28;20132;-68
2022/10/29 02:27:59;;;;;;;16.13;8.80;;;15.70;99.90;;;15.57;95.91;101859.88;5055280;28;20048;-68
2022/10/29 02:30:27;;;;;;;19.73;9.40;;;15.40;99.90;;;15.85;96.19;101892.53;5053620;28;20303;-68
2022/10/29 02:32:55;;;;;;;22.88;9.98;;;15.50;99.90;;;15.86;95.85;101887.16;5054937;28;20089;-68
2022/10/29 02:35:26;;;;;;;25.00;10.02;;;15.50;99.90;;;15.76;96.02;101869.47;5054830;28;20044;-68
2022/10/29 02:37:54;;;;;;;21.48;9.60;;;15.60;99.90;;;15.83;95.91;101886.31;5054631;28;20052;-68
2022/10/29 02:40:22;;;;;;;23.58;10.20;;;15.50;99.90;;;15.87;96.18;101882.72;5054854;28;20048;-68
2022/10/29 02:42:50;;;;;;;20.95;9.32;;;15.50;99.90;;;15.88;96.05;101871.13;5054635;28;20045;-68
2022/10/29 02:45:19;;;;;;;20.08;9.93;;;15.60;99.90;;;15.88;96.24;101877.34;5053315;28;20056;-68
2022/10/29 02:47:47;;;;;;;23.05;10.57;;;15.60;99.90;;;15.78;96.43;101865.00;5054433;28;20053;-67
2022/10/29 02:50:15;;;;;;;24.13;9.80;;;15.40;99.90;;;15.84;96.55;101869.38;5054408;28;20052;-68
2022/10/29 02:52:45;;;;;;;23.60;10.23;;;15.50;99.90;;;15.99;96.25;101864.78;5054411;28;20051;-68
2022/10/29 02:55:13;;;;;;;25.45;10.30;;;15.60;99.90;;;16.04;96.04;101875.41;5054367;28;20110;-68
2022/10/29 02:57:43;;;;;;;21.00;10.18;;;15.70;99.90;;;16.09;95.75;101871.78;5054323;28;20045;-68
2022/10/29 03:00:13;;;;;;;25.73;9.65;;;15.80;99.90;;;16.20;95.39;101879.69;5054261;28;20045;-68
2022/10/29 03:02:42;;;;;;;19.48;9.18;;;15.90;99.90;;;16.22;94.81;101878.75;5054325;28;20055;-68
2022/10/29 03:05:11;;;;;;;23.10;9.68;;;15.90;99.90;;;16.09;94.55;101860.22;5054183;28;20044;-68
2022/10/29 03:07:39;;;;;;;21.80;9.50;;;15.90;99.90;;;16.34;94.52;101893.75;5054133;28;20119;-68
2022/10/29 03:10:10;;;;;;;24.20;9.63;;;16.00;99.90;;;16.31;94.04;101884.91;5054031;28;20037;-68
2022/10/29 03:12:38;;;;;;;;;;;16.00;99.90;;;16.34;93.94;101882.22;5054503;28;20051;-68
2022/10/29 03:15:07;;;;;;;20.33;9.65;;;16.10;99.90;;;16.32;93.71;101878.69;5054018;28;20382;-68
2022/10/29 03:17:36;;;;;;;20.30;10.00;;;16.00;99.90;;;16.18;93.83;101868.16;5053947;28;20072;-69
2022/10/29 03:20:06;;;;;;;24.23;9.00;;;15.90;99.90;;;16.02;94.35;101853.19;5053905;28;20303;-68
2022/10/29 03:22:36;;;;;;;21.02;9.75;;;15.80;99.90;;;15.99;95.13;101863.88;5053841;28;20052;-68
2022/10/29 03:25:05;;;;;;;22.90;9.15;;;15.60;99.90;;;15.96;95.32;101854.16;5054007;28;20055;-68
2022/10/29 03:27:41;;;;;;;17.55;9.05;;;15.60;99.90;;;16.09;95.62;101863.78;5053679;28;20048;-68
2022/10/29 03:30:12;;;;;;;19.83;9.88;;;15.60;99.90;;;16.18;95.18;101868.16;5069113;28;20060;-68
2022/10/29 03:32:40;;;;;;;;;;;15.70;99.90;;;16.12;94.76;101846.88;5069719;28;20129;-68
2022/10/29 03:35:10;;;;;;;22.58;9.57;;;15.80;99.90;;;16.05;95.05;101840.69;5053583;28;19928;-68
2022/10/29 03:37:38;;;;;;;23.37;9.90;;;15.80;99.90;;;16.05;95.21;101850.47;5053688;28;20119;-69
2022/10/29 03:40:09;;;;;;;17.35;8.68;;;15.70;99.90;;;15.88;96.29;101847.13;5068835;28;20053;-68
2022/10/29 03:42:39;;;;;;;24.98;9.48;;;15.50;99.90;;;15.68;97.01;101841.13;5053551;28;20127;-68
2022/10/29 03:45:10;;;;;;;23.40;9.20;;;15.40;99.90;;;15.10;98.35;101758.94;5069093;28;20048;-69
2022/10/29 03:47:38;;;;;;;20.23;9.55;;;15.20;99.90;;;15.66;98.19;101856.25;5053446;28;20132;-69
2022/10/29 03:50:08;;;;;;;22.80;9.77;;;15.30;99.90;;;15.60;98.50;101841.16;5053347;28;20161;-68
2022/10/29 03:52:37;;;;;;;22.52;9.88;;;15.20;99.90;;;15.43;99.11;101828.91;5068517;28;20047;-68
2022/10/29 03:55:07;;;;;;;24.98;10.95;;;15.10;99.90;;;15.56;99.59;101831.44;5053192;28;20124;-68
2022/10/29 03:57:35;;;;;;;21.63;10.98;;;15.20;99.90;;;15.56;98.90;101831.44;5052835;28;20055;-68
2022/10/29 04:00:07;;;;;;;22.65;10.27;;;15.20;99.90;;;15.59;99.03;101833.19;5053102;28;20040;-68
2022/10/29 04:02:41;;;;;;;17.33;9.45;;;15.20;99.90;;;15.68;98.93;101835.78;5053354;28;20103;-68
2022/10/29 04:05:09;;;;;;;23.80;11.23;;;15.30;99.90;;;15.72;98.51;101832.16;5053052;28;20391;-68
2022/10/29 04:07:37;;;;;;;19.58;10.73;;;15.40;99.90;;;15.68;98.23;101833.13;5053183;28;20049;-68
2022/10/29 04:10:07;;;;;;;21.27;10.90;;;15.30;99.90;;;15.66;98.54;101832.25;5053176;28;20147;-68
2022/10/29 04:12:35;;;;;;;18.65;11.45;;;15.30;99.90;;;15.73;98.19;101829.50;5052803;28;20452;-68
2022/10/29 04:15:06;;;;;;;21.60;11.07;;;15.40;99.90;;;15.81;98.23;101830.31;5053046;28;20048;-68
2022/10/29 04:17:34;;;;;;;17.88;11.75;;;15.40;99.90;;;15.84;97.89;101826.69;5052938;28;20375;-68
2022/10/29 04:20:03;;;;;;;22.77;11.32;;;15.50;99.90;;;15.92;97.50;101825.72;5052725;28;20509;-68
2022/10/29 04:22:51;;;;;;;27.67;11.40;;;15.60;99.90;;;16.15;97.03;101826.34;5052872;28;20122;-68
2022/10/29 04:25:39;;;;;;;20.83;12.15;;;15.80;99.90;;;15.89;96.60;101822.22;5052915;28;20056;-68
2022/10/29 04:28:27;;;;;;;28.50;11.45;;;15.60;99.90;;;15.76;97.46;101824.13;5052672;28;20049;-68
2022/10/29 04:31:13;;;;;;;19.73;10.80;;;15.40;99.90;;;15.75;97.99;101825.03;5053123;28;20059;-67
2022/10/29 04:33:41;;;;;;;18.60;11.13;;;15.40;99.90;;;15.74;97.80;101817.91;5052735;28;20045;-67
2022/10/29 04:36:10;;;;;;;21.33;11.40;;;15.40;99.90;;;15.71;97.88;101806.38;5052940;28;20051;-67
2022/10/29 04:38:38;;;;;;;22.45;11.68;;;15.40;99.90;;;15.69;98.25;101809.09;5052555;28;20082;-67
2022/10/29 04:41:07;;;;;;;24.05;11.90;;;15.30;99.90;;;15.63;98.43;101802.91;5052384;28;20060;-67
2022/10/29 04:43:35;;;;;;;19.88;11.25;;;15.20;99.90;;;15.65;98.50;101799.34;5052705;28;20037;-67
2022/10/29 04:46:03;;;;;;;23.92;12.40;;;15.30;99.90;;;15.54;98.23;101789.69;5052443;28;20041;-67
2022/10/29 04:48:33;;;;;;;19.65;11.27;;;15.30;99.90;;;15.68;98.06;101806.44;5052570;28;20049;-67
2022/10/29 04:51:02;;;;;;;26.33;12.33;;;15.30;99.90;;;15.69;97.94;101811.75;5052562;28;20043;-67
2022/10/29 04:53:30;;;;;;;24.30;12.00;;;15.40;99.90;;;15.74;97.70;101809.91;5052340;28;20041;-67
2022/10/29 04:56:01;;;;;;;22.80;12.30;;;15.40;99.90;;;15.71;97.26;101814.41;5052671;28;20502;-67
2022/10/29 04:58:29;;;;;;;;;;;15.40;99.90;;;15.65;97.60;101809.13;5052962;28;20119;-68
2022/10/29 05:01:01;;;;;;;28.63;12.52;;;15.30;99.90;;;15.56;98.06;101790.56;5052487;28;19920;-67
2022/10/29 05:03:30;;;;;;;23.42;13.15;;;15.30;99.90;;;15.97;97.52;101804.31;5052436;28;20049;-67
2022/10/29 05:06:03;;;;;;;22.92;11.93;;;15.50;99.90;;;16.18;96.45;101791.59;5052243;28;20037;-66
2022/10/29 05:08:32;;;;;;;21.77;12.23;;;15.70;99.90;;;16.31;95.32;101799.44;5052371;28;20478;-67
2022/10/29 05:11:02;;;;;;;18.83;11.18;;;16.00;99.90;;;16.27;94.91;101791.50;5056186;28;20037;-67
2022/10/29 05:13:31;;;;;;;21.77;10.65;;;16.00;99.90;;;16.41;94.32;101793.09;5056291;28;20041;-67
2022/10/29 05:16:00;;;;;;;28.15;12.30;;;16.10;99.90;;;16.59;93.66;101793.75;5056328;28;20053;-67
2022/10/29 05:18:28;;;;;;;19.30;10.98;;;16.30;99.90;;;16.68;93.13;101788.28;5056191;28;20044;-67
2022/10/29 05:20:59;;;;;;;19.00;11.68;;;16.40;99.90;;;16.80;92.58;101790.75;5055086;28;20041;-67
2022/10/29 05:23:27;;;;;;;19.00;10.38;;;16.50;99.90;;;16.88;91.98;101778.16;5056382;28;20060;-69
2022/10/29 05:25:56;;;;;;;22.60;11.50;;;16.60;99.90;;;16.79;91.21;101756.94;5056186;28;20433;-69
2022/10/29 05:28:24;;;;;;;18.42;10.18;;;16.60;99.90;;;16.88;90.56;101767.47;5056133;28;20051;-69
2022/10/29 05:30:53;;;;;;;22.60;10.90;;;16.70;99.90;;;16.52;91.17;101769.81;5055891;28;20037;-67
2022/10/29 05:33:24;;;;;;;22.63;11.27;;;16.30;99.90;;;16.43;91.55;101737.88;5055934;28;20055;-66
2022/10/29 05:35:53;;;;;;;20.33;10.55;;;16.30;99.90;;;16.69;91.40;101765.09;5055901;28;20495;-66
2022/10/29 05:38:22;;;;;;;19.33;11.02;;;16.40;99.90;;;16.82;90.77;101778.25;5055924;28;20103;-66
2022/10/29 05:40:51;;;;;;;18.43;10.60;;;16.50;99.90;;;16.78;90.58;101784.53;5055894;28;20051;-67
2022/10/29 05:43:19;;;;;;;17.65;10.77;;;16.50;99.90;;;16.93;90.32;101781.66;5055689;28;20045;-66
2022/10/29 05:45:47;;;;;;;25.00;11.50;;;16.60;99.90;;;17.03;89.95;101787.75;5055742;28;20528;-67
2022/10/29 05:48:15;;;;;;;21.67;10.80;;;16.60;99.90;;;17.07;89.61;101784.97;5055480;28;20086;-67
2022/10/29 05:50:44;;;;;;;22.77;11.32;;;16.70;99.90;;;16.88;89.38;101786.19;5055642;28;20041;-67
2022/10/29 05:53:14;;;;;;;22.35;10.43;;;16.60;99.90;;;16.71;90.02;101782.00;5055478;28;20457;-67
2022/10/29 05:55:44;;;;;;;23.00;11.48;;;16.50;99.90;;;16.58;90.66;101777.75;5055766;28;20049;-67
2022/10/29 05:58:14;;;;;;;22.17;10.75;;;16.30;99.90;;;16.35;91.08;101747.78;5055271;28;20041;-67
2022/10/29 06:00:45;;;;;;;20.17;10.25;;;16.20;99.90;;;16.56;91.49;101764.41;5054311;28;20057;-67
2022/10/29 06:03:15;;;;;;;22.65;11.77;;;16.20;99.90;;;16.61;91.37;101767.88;5055328;28;20079;-66
2022/10/29 06:05:44;;;;;;;22.83;11.40;;;16.30;99.90;;;16.56;91.58;101766.19;5055434;28;20052;-66
2022/10/29 06:08:13;;;;;;;23.13;11.13;;;16.20;99.90;;;16.53;91.62;101763.59;5055285;28;20037;-66
2022/10/29 06:10:42;;;;;;;23.55;10.90;;;16.20;99.90;;;16.40;91.86;101760.16;5055231;28;20490;-66
2022/10/29 06:13:12;;;;;;;23.20;11.25;;;16.20;99.90;;;16.11;93.02;101749.88;5055392;28;20040;-66
2022/10/29 06:15:41;;;;;;;21.38;12.35;;;16.00;99.90;;;16.17;94.09;101754.25;5055303;28;20037;-66
2022/10/29 06:18:10;;;;;;;23.35;12.38;;;15.90;99.90;;;16.27;94.04;101753.22;5055186;28;20049;-66
2022/10/29 06:20:39;;;;;;;21.65;12.45;;;16.00;99.90;;;16.35;93.89;101754.00;5054939;28;20056;-66
2022/10/29 06:23:07;;;;;;;25.80;13.10;;;16.00;99.90;;;16.32;94.15;101727.31;5054930;28;20045;-66
2022/10/29 06:25:36;;;;;;;21.25;12.07;;;16.10;99.90;;;16.59;93.82;101734.97;5054922;28;20063;-66
2022/10/29 06:28:07;;;;;;;26.20;12.85;;;16.30;99.90;;;16.68;93.35;101740.19;5054661;28;20128;-67
2022/10/29 06:30:37;;;;;;;21.25;12.30;;;16.30;99.90;;;16.58;93.29;101743.91;5053247;28;20076;-66
2022/10/29 06:33:05;;;;;;;27.58;13.52;;;16.40;99.90;;;16.56;93.17;101748.38;5054675;28;20053;-69
2022/10/29 06:35:34;;;;;;;26.25;13.40;;;16.40;99.90;;;16.65;93.55;101752.69;5054775;28;20037;-69
2022/10/29 06:38:08;;;;;;;22.77;13.95;;;16.30;99.90;;;16.73;93.34;101749.00;5054792;28;20033;-69
2022/10/29 06:40:39;;;;;;;19.48;12.90;;;16.40;99.90;;;16.63;93.73;101747.38;5054840;28;20053;-69
2022/10/29 06:43:11;;;;;;;25.92;13.43;;;16.40;99.90;;;16.76;93.46;101748.09;5054567;28;20041;-69
2022/10/29 06:45:40;;;;;;;25.00;13.48;;;16.50;99.90;;;16.71;93.45;101740.13;5054605;28;20041;-69
2022/10/29 06:48:10;;;;;;;25.20;13.52;;;16.50;99.90;;;16.65;93.81;101729.53;5054476;28;20052;-69
2022/10/29 06:50:38;;;;;;;23.27;13.07;;;16.50;99.90;;;16.86;93.72;101749.72;5054634;28;20064;-69
2022/10/29 06:53:11;;;;;;;23.33;13.20;;;16.60;99.90;;;16.77;93.88;101745.38;5054279;28;20115;-69
2022/10/29 06:55:40;;;;;;;23.63;13.63;;;16.50;99.90;;;16.46;94.70;101717.34;5054490;28;20044;-69
2022/10/29 06:58:12;;;;;;;25.48;14.10;;;16.30;99.90;;;16.75;94.83;101731.16;5054351;28;20041;-69
2022/10/29 07:00:41;;;;;;;25.55;12.93;;;16.40;99.90;;;16.69;94.87;101714.34;5054194;28;20053;-69
2022/10/29 07:03:13;;;;;;;28.90;14.70;;;16.50;99.90;;;16.47;95.57;101726.25;5054379;28;20052;-69
2022/10/29 07:05:41;;;;;;;23.30;14.40;;;16.40;99.90;;;16.11;98.33;101735.63;5054259;28;20049;-69
2022/10/29 07:08:10;;;;;;;22.80;13.25;;;15.90;99.90;;;16.03;100.00;101748.19;5054309;28;20376;-69
2022/10/29 07:10:39;;;;;;;29.52;14.70;;;15.70;99.90;;;15.82;100.00;101737.78;5054071;28;20045;-69
2022/10/29 07:13:10;;;;;;;26.77;15.23;;;15.60;99.90;;;15.84;100.00;101741.31;5069292;28;20494;-70
2022/10/29 07:15:38;;;;;;;31.05;15.98;;;15.50;99.90;;;15.58;100.00;101711.41;5054080;28;20131;-69
2022/10/29 07:18:08;;;;;;;24.17;15.15;;;15.40;99.90;;;15.86;100.00;101729.72;5053894;28;20049;-69
2022/10/29 07:20:39;;;;;;;36.78;17.83;;;15.50;99.90;;;16.02;100.00;101730.44;5053871;28;20132;-69
2022/10/29 07:23:08;;;;;;;28.35;15.82;;;15.60;99.90;;;16.12;100.00;101738.28;5053938;28;20071;-69
2022/10/29 07:25:38;;;;;;;28.27;16.52;;;15.70;99.90;;;16.13;100.00;101740.06;5053756;28;20379;-69
2022/10/29 07:28:11;;;;;;;30.17;16.15;;;15.80;99.90;;;16.11;100.00;101723.19;5053776;28;20045;-69
2022/10/29 07:30:40;;;;;;;34.55;16.90;;;15.80;99.90;;;16.11;100.00;101727.63;5053904;28;20049;-69
2022/10/29 07:33:08;;;;;;;32.40;17.20;;;15.80;99.90;;;16.11;100.00;101724.97;5052882;28;20141;-69
2022/10/29 07:35:37;;;;;;;29.85;17.65;;;15.80;99.90;;;16.18;100.00;101726.66;5053712;28;20445;-69
2022/10/29 07:38:07;;;;;;;37.35;18.63;;;15.90;99.90;;;15.40;100.00;101560.50;5053523;28;20487;-69
2022/10/29 07:40:39;;;;;;;39.30;20.23;;;15.90;99.90;;;16.30;100.00;101720.28;5053813;28;20041;-69
2022/10/29 07:43:09;;;;;;;38.88;20.38;;;16.00;99.90;;;16.35;100.00;101718.41;5053508;28;20041;-69
2022/10/29 07:45:37;;;;;;;40.50;19.97;;;16.00;99.90;;;16.45;100.00;101718.25;5053513;28;20044;-69
2022/10/29 07:48:07;;;;;;;38.42;19.95;;;16.10;99.90;;;16.42;100.00;101710.28;5053136;28;20049;-69
2022/10/29 07:50:37;;;;;;;34.90;19.83;;;16.20;99.90;;;16.57;100.00;101726.09;5053337;28;20083;-69
2022/10/29 07:53:06;;;;;;;31.93;18.97;;;16.20;99.90;;;16.66;100.00;101725.97;5053985;28;20064;-69
2022/10/29 07:55:35;;;;;;;33.00;19.38;;;16.30;99.90;;;16.84;100.00;101724.81;5053297;28;20792;-69
2022/10/29 07:58:06;;;;;;;34.13;19.98;;;16.50;99.90;;;16.89;100.00;101729.16;5068457;28;20057;-68
2022/10/29 08:00:37;;;;;;;36.53;20.75;;;16.50;99.90;;;16.92;100.00;101725.53;5053202;28;20044;-69
2022/10/29 08:03:07;;;;;;;36.35;20.95;;;16.60;99.90;;;16.90;100.00;101714.88;5053204;28;20049;-69
2022/10/29 08:05:35;;;;;;;32.67;19.42;;;16.60;99.90;;;16.96;100.00;101719.22;5053005;28;20051;-69
2022/10/29 08:08:04;;;;;;;37.80;19.75;;;16.60;99.90;;;16.46;100.00;101628.31;5053248;28;20410;-69
2022/10/29 08:10:34;;;;;;;34.25;20.10;;;16.60;99.90;;;17.12;100.00;101729.66;5053190;28;20094;-69
2022/10/29 08:13:05;;;;;;;35.63;19.13;;;16.70;99.90;;;17.09;100.00;101715.47;5052878;28;20041;-69
2022/10/29 08:15:35;;;;;;;38.03;20.55;;;16.80;99.90;;;17.04;100.00;101720.88;5052848;28;20511;-69
2022/10/29 08:18:11;;;;;;;30.15;19.48;;;16.80;99.90;;;17.25;100.00;101734.78;5052877;28;20486;-69
2022/10/29 08:20:40;;;;;;;34.15;19.75;;;16.90;99.90;;;17.31;100.00;101735.53;5053053;28;20148;-68
2022/10/29 08:23:08;;;;;;;34.08;20.95;;;16.90;99.90;;;17.69;100.00;101738.41;5068295;28;20565;-69
2022/10/29 08:25:40;;;;;;;31.13;19.63;;;17.20;99.90;;;17.90;100.00;101740.66;5051532;28;20092;-69
2022/10/29 08:28:11;;;;;;;33.67;19.95;;;17.50;99.90;;;17.91;100.00;101741.53;5052690;28;20049;-69
2022/10/29 08:30:42;;;;;;;35.47;20.65;;;17.50;99.90;;;17.89;100.00;101738.00;5052974;28;20512;-69
2022/10/29 08:33:11;;;;;;;35.00;19.55;;;17.60;99.90;;;17.75;100.00;101734.75;5052679;28;20486;-69
2022/10/29 08:35:39;;;;;;;39.38;20.77;;;17.50;99.90;;;17.97;100.00;101736.94;5052606;28;20035;-69
2022/10/29 08:38:08;;;;;;;37.40;20.05;;;17.60;99.90;;;18.00;100.00;101730.66;5052603;28;20506;-69
2022/10/29 08:40:50;;;;;;;34.70;20.83;;;17.60;99.90;;;17.73;100.00;101724.06;5052537;28;20041;-69
2022/10/29 08:44:03;;;;;;;33.58;20.20;;;17.40;99.90;;;17.53;100.00;101701.28;5052327;28;20494;-69
2022/10/29 08:46:44;;;;;;;35.33;21.35;;;17.30;99.90;;;17.51;100.00;101701.31;5052568;28;20401;-69
2022/10/29 08:49:18;;;;;;;32.53;20.65;;;17.20;99.90;;;17.64;100.00;101713.53;5052501;28;20099;-69
2022/10/29 08:51:54;;;;;;;36.13;21.25;;;17.30;99.90;;;17.64;100.00;101709.97;5052952;28;20049;-69
2022/10/29 08:54:25;;;;;;;42.58;20.92;;;17.30;99.90;;;17.57;100.00;101705.66;5052406;28;20506;-69
2022/10/29 08:57:04;;;;;;;32.45;21.00;;;17.20;99.90;;;17.55;100.00;101704.81;5052395;28;20087;-68
2022/10/29 08:59:40;;;;;;;45.33;21.88;;;17.20;99.90;;;17.50;100.00;101704.91;5052381;28;20120;-69
2022/10/29 09:02:17;;;;;;;39.55;21.75;;;17.20;99.90;;;17.41;100.00;101680.97;5052410;28;20121;-69
2022/10/29 09:04:45;;;;;;;42.58;20.90;;;17.20;99.90;;;17.46;100.00;101684.44;5052439;28;20080;-69
2022/10/29 09:07:37;;;;;;;37.30;21.38;;;17.20;99.90;;;17.57;100.00;101693.19;5052324;28;20099;-69
2022/10/29 09:10:12;;;;;;;33.78;20.88;;;17.20;99.90;;;17.58;100.00;101689.56;5051348;28;20048;-69
2022/10/29 09:13:01;;;;;;;43.33;22.17;;;17.20;99.90;;;17.44;100.00;101686.25;5052287;28;20500;-69
2022/10/29 09:15:50;;;;;;;38.05;22.13;;;17.20;99.90;;;17.47;100.00;101686.22;5050956;28;20055;-69
2022/10/29 09:18:47;;;;;;;38.25;20.90;;;17.10;99.90;;;17.47;100.00;101675.50;5052048;28;20099;-69
2022/10/29 09:21:28;;;;;;;36.15;20.58;;;17.20;99.90;;;17.41;100.00;101661.34;5052150;28;20037;-69
2022/10/29 09:24:07;;;;;;;;;;;17.20;99.90;;;17.52;100.00;101651.34;5052530;28;20131;-69
2022/10/29 09:26:57;;;;;;;39.15;21.33;;;17.20;99.90;;;17.47;100.00;101647.88;5052044;28;19942;-69
2022/10/29 09:29:51;;;;;;;36.45;20.02;;;17.20;99.90;;;17.39;100.00;101639.09;5051961;28;20045;-69
2022/10/29 09:32:24;;;;;;;30.98;19.05;;;17.20;99.90;;;17.63;100.00;101649.34;5052110;28;20045;-69
2022/10/29 09:35:01;;;;;;;30.92;18.95;;;17.30;99.90;;;17.72;100.00;101649.16;5051944;28;20449;-69
2022/10/29 09:37:41;;;;;;;28.45;18.50;;;17.30;99.90;;;17.57;100.00;101612.03;5051982;28;20128;-69
2022/10/29 09:40:24;;;;;;;33.00;19.27;;;17.40;99.90;;;17.97;100.00;101658.41;5050864;28;20131;-69
2022/10/29 09:42:54;;;;;;;33.72;19.63;;;17.60;99.90;;;18.04;100.00;101668.06;5052049;28;20041;-69
2022/10/29 09:45:32;;;;;;;35.75;19.25;;;17.70;99.90;;;18.02;100.00;101664.56;5052019;28;20041;-69
2022/10/29 09:48:11;;;;;;;34.05;18.98;;;17.70;99.90;;;18.15;100.00;101655.34;5051929;28;20497;-69
2022/10/29 09:50:52;;;;;;;32.55;18.33;;;17.80;99.90;;;18.23;100.00;101648.00;5052132;28;20055;-69
2022/10/29 09:53:21;;;;;;;28.38;17.48;;;17.90;99.90;;;18.45;100.00;101657.31;5051875;28;20049;-69
2022/10/29 09:55:52;;;;;;;30.13;18.33;;;18.10;99.90;;;18.55;100.00;101618.66;5053363;28;20041;-68
2022/10/29 09:58:23;;;;;;;29.10;17.17;;;18.40;99.90;;;18.18;100.00;101595.44;5055515;28;20041;-68
2022/10/29 10:00:51;;;;;;;;;;;18.40;99.90;;;18.87;99.71;101641.97;5055783;28;20216;-69
2022/10/29 10:03:26;;;;;;;32.65;17.90;;;18.60;99.90;;;19.29;98.13;101648.88;5070745;28;19952;-69
2022/10/29 10:06:05;;;;;;;25.83;17.20;;;18.90;99.90;;;19.42;97.07;101641.38;5055275;28;20051;-68
2022/10/29 10:08:36;;;;;;;26.73;17.33;;;19.10;99.90;;;19.29;95.39;101600.56;5055646;28;20045;-68
2022/10/29 10:11:06;;;;;;;33.53;19.20;;;19.10;99.90;;;19.40;95.04;101632.47;5055347;28;20044;-68
2022/10/29 10:13:37;;;;;;;;;;;19.10;99.90;;;19.21;94.48;101632.09;5055718;28;20037;-68
2022/10/29 10:16:06;;;;;;;29.00;17.08;;;19.00;99.90;;;19.20;95.51;101630.31;5055182;28;19927;-68
2022/10/29 10:18:42;;;;;;;29.80;16.40;;;18.90;99.90;;;19.17;95.35;101634.88;5055022;28;20055;-68
2022/10/29 10:21:26;;;;;;;;;;;18.90;99.90;;;19.29;94.95;101637.25;5055569;28;20409;-68
2022/10/29 10:23:56;;;;;;;28.05;15.98;;;18.90;99.90;;;19.39;94.34;101634.31;5055189;28;20380;-68